North Fryeburg, Maine
Current Conditions -  °F | °C
As of 4:54 PM on Thursday 18 Dec 2014 (Local Time) from KIZG Reporting Station
Overcast Overcast  
Wind Chill: 27°   Ceiling: 3000
Heat Index: 35°   Visibility: 10mi
Dew Point: 25°   Wind: 12mph
Humidity: 67%   Direction: 290°WNW
Pressure: 29.75"   Gusts: NA
Location:  44.0478°N, 70.9547°W
Report Text: KIZG 182154Z AUTO 29010KT 10SM BKN030 OVC042 02/M04 A2975 RMK AO2 SLP079 T00171039
Loading
Personal Weather Stations






























Interactive Weather Map New forecast layout! Learn more

10-Day Weather Forecast

Advertisements
Track Severe Weather on mobile